Kerr, Ohio
Current Conditions -  °F | °C
As of 11:35 AM on Monday 24 Nov 2014 (Local Time) from K3I2 Reporting Station
Broken Clouds Broken Clouds  
Wind Chill: 63°   Ceiling: 8500
Heat Index: 63°   Visibility: 10mi
Dew Point: 52°   Wind: 14mph
Humidity: 68%   Direction: 240°WSW
Pressure: 29.49"   Gusts: 22mph
Location:  38.87°N, 82.26°W
Report Text: K3I2 241635Z AUTO 24012G19KT 10SM SCT050 SCT070 BKN085 17/11 A2949 RMK AO2
Loading
Personal Weather Stations






























Interactive Weather Map New forecast layout! Learn more

10-Day Weather Forecast

Advertisements
Track Severe Weather on mobile